sensor_id;sensor_type;location;lat;lon;timestamp;P1;durP1;ratioP1;P2;durP2;ratioP2
18532;SDS011;9396;51.510;11.934;2024-01-15T00:00:51;18.27;;;10.90;;
18532;SDS011;9396;51.510;11.934;2024-01-15T00:03:17;17.67;;;10.80;;
18532;SDS011;9396;51.510;11.934;2024-01-15T00:05:45;16.07;;;11.17;;
18532;SDS011;9396;51.510;11.934;2024-01-15T00:08:12;18.03;;;10.93;;
18532;SDS011;9396;51.510;11.934;2024-01-15T00:10:39;17.53;;;10.87;;
18532;SDS011;9396;51.510;11.934;2024-01-15T00:13:06;17.70;;;11.20;;
18532;SDS011;9396;51.510;11.934;2024-01-15T00:15:33;19.07;;;11.30;;
18532;SDS011;9396;51.510;11.934;2024-01-15T00:17:59;16.20;;;11.07;;
18532;SDS011;9396;51.510;11.934;2024-01-15T00:20:26;17.70;;;11.20;;
18532;SDS011;9396;51.510;11.934;2024-01-15T00:22:54;17.53;;;10.97;;
18532;SDS011;9396;51.510;11.934;2024-01-15T00:25:20;17.70;;;10.77;;
18532;SDS011;9396;51.510;11.934;2024-01-15T00:27:47;17.90;;;10.40;;
18532;SDS011;9396;51.510;11.934;2024-01-15T00:30:14;17.17;;;10.43;;
18532;SDS011;9396;51.510;11.934;2024-01-15T00:32:41;16.03;;;9.97;;
18532;SDS011;9396;51.510;11.934;2024-01-15T00:35:08;14.87;;;10.27;;
18532;SDS011;9396;51.510;11.934;2024-01-15T00:37:34;16.73;;;11.03;;
18532;SDS011;9396;51.510;11.934;2024-01-15T00:40:03;17.60;;;10.73;;
18532;SDS011;9396;51.510;11.934;2024-01-15T00:42:30;18.50;;;10.93;;
18532;SDS011;9396;51.510;11.934;2024-01-15T00:44:57;17.57;;;10.60;;
18532;SDS011;9396;51.510;11.934;2024-01-15T00:47:24;16.47;;;11.43;;
18532;SDS011;9396;51.510;11.934;2024-01-15T00:49:50;15.30;;;10.47;;
18532;SDS011;9396;51.510;11.934;2024-01-15T00:52:17;16.73;;;10.37;;
18532;SDS011;9396;51.510;11.934;2024-01-15T00:54:44;19.47;;;11.03;;
18532;SDS011;9396;51.510;11.934;2024-01-15T00:57:12;16.63;;;11.60;;
18532;SDS011;9396;51.510;11.934;2024-01-15T00:59:38;17.83;;;11.33;;
18532;SDS011;9396;51.510;11.934;2024-01-15T01:02:05;17.83;;;10.77;;
18532;SDS011;9396;51.510;11.934;2024-01-15T01:04:32;20.33;;;10.90;;
18532;SDS011;9396;51.510;11.934;2024-01-15T01:06:58;18.13;;;11.30;;
18532;SDS011;9396;51.510;11.934;2024-01-15T01:09:25;17.00;;;10.73;;
18532;SDS011;9396;51.510;11.934;2024-01-15T01:11:54;18.30;;;11.70;;
18532;SDS011;9396;51.510;11.934;2024-01-15T01:14:22;20.10;;;11.80;;
18532;SDS011;9396;51.510;11.934;2024-01-15T01:16:48;18.33;;;11.10;;
18532;SDS011;9396;51.510;11.934;2024-01-15T01:19:15;19.47;;;11.50;;
18532;SDS011;9396;51.510;11.934;2024-01-15T01:21:42;21.10;;;12.47;;
18532;SDS011;9396;51.510;11.934;2024-01-15T01:24:08;22.70;;;11.83;;
18532;SDS011;9396;51.510;11.934;2024-01-15T01:26:35;19.10;;;12.23;;
18532;SDS011;9396;51.510;11.934;2024-01-15T01:29:02;23.00;;;12.67;;
18532;SDS011;9396;51.510;11.934;2024-01-15T01:31:30;19.93;;;12.17;;
18532;SDS011;9396;51.510;11.934;2024-01-15T01:33:56;22.03;;;12.87;;
18532;SDS011;9396;51.510;11.934;2024-01-15T01:36:23;19.93;;;11.83;;
18532;SDS011;9396;51.510;11.934;2024-01-15T01:38:49;20.53;;;12.10;;
18532;SDS011;9396;51.510;11.934;2024-01-15T01:41:17;20.73;;;12.33;;
18532;SDS011;9396;51.510;11.934;2024-01-15T01:43:43;19.43;;;11.80;;
18532;SDS011;9396;51.510;11.934;2024-01-15T01:46:10;19.50;;;12.97;;
18532;SDS011;9396;51.510;11.934;2024-01-15T01:48:39;21.40;;;12.50;;
18532;SDS011;9396;51.510;11.934;2024-01-15T01:51:05;16.37;;;11.10;;
18532;SDS011;9396;51.510;11.934;2024-01-15T01:53:33;19.83;;;12.20;;
18532;SDS011;9396;51.510;11.934;2024-01-15T01:56:02;20.43;;;11.97;;
18532;SDS011;9396;51.510;11.934;2024-01-15T01:58:30;20.63;;;12.10;;
18532;SDS011;9396;51.510;11.934;2024-01-15T02:00:58;21.90;;;11.73;;
18532;SDS011;9396;51.510;11.934;2024-01-15T02:03:25;19.67;;;11.60;;
18532;SDS011;9396;51.510;11.934;2024-01-15T02:05:54;19.00;;;10.83;;
18532;SDS011;9396;51.510;11.934;2024-01-15T02:08:22;18.87;;;11.07;;
18532;SDS011;9396;51.510;11.934;2024-01-15T02:10:48;21.87;;;11.70;;
18532;SDS011;9396;51.510;11.934;2024-01-15T02:13:15;18.53;;;12.20;;
18532;SDS011;9396;51.510;11.934;2024-01-15T02:15:42;19.30;;;11.70;;
18532;SDS011;9396;51.510;11.934;2024-01-15T02:18:08;18.93;;;11.53;;
18532;SDS011;9396;51.510;11.934;2024-01-15T02:20:35;17.47;;;10.67;;
18532;SDS011;9396;51.510;11.934;2024-01-15T02:23:07;23.20;;;12.00;;
18532;SDS011;9396;51.510;11.934;2024-01-15T02:25:36;20.57;;;11.23;;
18532;SDS011;9396;51.510;11.934;2024-01-15T02:28:04;18.43;;;10.97;;
18532;SDS011;9396;51.510;11.934;2024-01-15T02:30:31;17.73;;;10.63;;
18532;SDS011;9396;51.510;11.934;2024-01-15T02:32:58;20.57;;;12.37;;
18532;SDS011;9396;51.510;11.934;2024-01-15T02:35:25;24.07;;;12.33;;
18532;SDS011;9396;51.510;11.934;2024-01-15T02:37:52;22.27;;;12.13;;
18532;SDS011;9396;51.510;11.934;2024-01-15T02:40:20;19.63;;;11.70;;
18532;SDS011;9396;51.510;11.934;2024-01-15T02:42:46;23.27;;;11.57;;
18532;SDS011;9396;51.510;11.934;2024-01-15T02:45:13;20.87;;;12.13;;
18532;SDS011;9396;51.510;11.934;2024-01-15T02:47:40;20.13;;;11.73;;
18532;SDS011;9396;51.510;11.934;2024-01-15T02:50:07;21.00;;;11.90;;
18532;SDS011;9396;51.510;11.934;2024-01-15T02:52:33;18.10;;;11.60;;
18532;SDS011;9396;51.510;11.934;2024-01-15T02:55:00;17.07;;;11.27;;
18532;SDS011;9396;51.510;11.934;2024-01-15T02:57:28;17.53;;;11.47;;
18532;SDS011;9396;51.510;11.934;2024-01-15T02:59:55;18.83;;;12.00;;
18532;SDS011;9396;51.510;11.934;2024-01-15T03:02:21;19.63;;;11.93;;
18532;SDS011;9396;51.510;11.934;2024-01-15T03:04:48;18.73;;;11.10;;
18532;SDS011;9396;51.510;11.934;2024-01-15T03:07:15;17.73;;;10.90;;
18532;SDS011;9396;51.510;11.934;2024-01-15T03:09:41;21.87;;;12.23;;
18532;SDS011;9396;51.510;11.934;2024-01-15T03:12:08;20.10;;;10.90;;
18532;SDS011;9396;51.510;11.934;2024-01-15T03:14:37;20.57;;;12.60;;
18532;SDS011;9396;51.510;11.934;2024-01-15T03:17:04;20.93;;;11.27;;
18532;SDS011;9396;51.510;11.934;2024-01-15T03:19:31;19.93;;;11.27;;
18532;SDS011;9396;51.510;11.934;2024-01-15T03:22:01;15.53;;;9.97;;
18532;SDS011;9396;51.510;11.934;2024-01-15T03:24:28;19.37;;;11.83;;
18532;SDS011;9396;51.510;11.934;2024-01-15T03:26:55;19.37;;;11.20;;
18532;SDS011;9396;51.510;11.934;2024-01-15T03:29:21;21.13;;;11.70;;
18532;SDS011;9396;51.510;11.934;2024-01-15T03:31:49;22.57;;;11.50;;
18532;SDS011;9396;51.510;11.934;2024-01-15T03:34:16;20.70;;;12.20;;
18532;SDS011;9396;51.510;11.934;2024-01-15T03:36:43;20.77;;;11.53;;
18532;SDS011;9396;51.510;11.934;2024-01-15T03:39:09;19.57;;;10.83;;
18532;SDS011;9396;51.510;11.934;2024-01-15T03:41:36;22.70;;;10.87;;
18532;SDS011;9396;51.510;11.934;2024-01-15T03:44:03;19.80;;;11.10;;
18532;SDS011;9396;51.510;11.934;2024-01-15T03:46:29;20.77;;;11.23;;
18532;SDS011;9396;51.510;11.934;2024-01-15T03:48:57;18.70;;;11.27;;
18532;SDS011;9396;51.510;11.934;2024-01-15T03:51:24;17.60;;;11.13;;
18532;SDS011;9396;51.510;11.934;2024-01-15T03:53:51;16.63;;;9.90;;
18532;SDS011;9396;51.510;11.934;2024-01-15T03:56:17;21.93;;;11.47;;
18532;SDS011;9396;51.510;11.934;2024-01-15T03:58:44;17.20;;;10.60;;
18532;SDS011;9396;51.510;11.934;2024-01-15T04:01:11;19.17;;;10.87;;
18532;SDS011;9396;51.510;11.934;2024-01-15T04:03:37;16.67;;;10.77;;
18532;SDS011;9396;51.510;11.934;2024-01-15T04:06:05;17.77;;;10.40;;
18532;SDS011;9396;51.510;11.934;2024-01-15T04:08:32;15.73;;;9.63;;
18532;SDS011;9396;51.510;11.934;2024-01-15T04:10:59;18.67;;;10.67;;
18532;SDS011;9396;51.510;11.934;2024-01-15T04:13:26;16.17;;;9.83;;
18532;SDS011;9396;51.510;11.934;2024-01-15T04:15:53;16.23;;;10.00;;
18532;SDS011;9396;51.510;11.934;2024-01-15T04:18:20;13.80;;;9.47;;
18532;SDS011;9396;51.510;11.934;2024-01-15T04:20:46;16.97;;;9.23;;
18532;SDS011;9396;51.510;11.934;2024-01-15T04:23:14;15.10;;;9.30;;
18532;SDS011;9396;51.510;11.934;2024-01-15T04:25:41;16.77;;;9.13;;
18532;SDS011;9396;51.510;11.934;2024-01-15T04:28:08;12.97;;;8.43;;
18532;SDS011;9396;51.510;11.934;2024-01-15T04:30:34;15.07;;;8.70;;
18532;SDS011;9396;51.510;11.934;2024-01-15T04:33:02;14.80;;;9.03;;
18532;SDS011;9396;51.510;11.934;2024-01-15T04:35:28;15.37;;;9.03;;
18532;SDS011;9396;51.510;11.934;2024-01-15T04:37:56;14.30;;;8.97;;
18532;SDS011;9396;51.510;11.934;2024-01-15T04:40:24;17.67;;;9.20;;
18532;SDS011;9396;51.510;11.934;2024-01-15T04:42:52;15.07;;;8.27;;
18532;SDS011;9396;51.510;11.934;2024-01-15T04:45:19;12.70;;;8.23;;
18532;SDS011;9396;51.510;11.934;2024-01-15T04:47:47;14.27;;;8.63;;
18532;SDS011;9396;51.510;11.934;2024-01-15T04:50:14;14.20;;;8.90;;
18532;SDS011;9396;51.510;11.934;2024-01-15T04:52:41;14.80;;;8.80;;
18532;SDS011;9396;51.510;11.934;2024-01-15T04:55:07;15.83;;;7.83;;
18532;SDS011;9396;51.510;11.934;2024-01-15T04:57:35;10.60;;;7.27;;
18532;SDS011;9396;51.510;11.934;2024-01-15T05:00:02;14.00;;;7.33;;
18532;SDS011;9396;51.510;11.934;2024-01-15T05:02:30;11.10;;;6.90;;
18532;SDS011;9396;51.510;11.934;2024-01-15T05:04:56;10.73;;;7.13;;
18532;SDS011;9396;51.510;11.934;2024-01-15T05:07:23;11.00;;;7.07;;
18532;SDS011;9396;51.510;11.934;2024-01-15T05:09:50;10.57;;;6.90;;
18532;SDS011;9396;51.510;11.934;2024-01-15T05:12:16;15.07;;;7.40;;
18532;SDS011;9396;51.510;11.934;2024-01-15T05:14:44;11.60;;;7.07;;
18532;SDS011;9396;51.510;11.934;2024-01-15T05:17:11;12.10;;;7.40;;
18532;SDS011;9396;51.510;11.934;2024-01-15T05:19:38;10.83;;;7.20;;
18532;SDS011;9396;51.510;11.934;2024-01-15T05:22:04;11.60;;;7.10;;
18532;SDS011;9396;51.510;11.934;2024-01-15T05:24:31;13.03;;;6.80;;
18532;SDS011;9396;51.510;11.934;2024-01-15T05:26:57;10.60;;;6.50;;
18532;SDS011;9396;51.510;11.934;2024-01-15T05:29:24;10.87;;;6.70;;
18532;SDS011;9396;51.510;11.934;2024-01-15T05:31:53;10.80;;;6.97;;
18532;SDS011;9396;51.510;11.934;2024-01-15T05:34:20;12.23;;;6.83;;
18532;SDS011;9396;51.510;11.934;2024-01-15T05:36:46;10.27;;;6.60;;
18532;SDS011;9396;51.510;11.934;2024-01-15T05:39:13;12.30;;;7.40;;
18532;SDS011;9396;51.510;11.934;2024-01-15T05:41:40;12.23;;;6.87;;
18532;SDS011;9396;51.510;11.934;2024-01-15T05:44:07;10.77;;;6.60;;
18532;SDS011;9396;51.510;11.934;2024-01-15T05:46:33;11.57;;;6.60;;
18532;SDS011;9396;51.510;11.934;2024-01-15T05:49:01;11.33;;;6.03;;
18532;SDS011;9396;51.510;11.934;2024-01-15T05:51:28;12.80;;;6.27;;
18532;SDS011;9396;51.510;11.934;2024-01-15T05:53:54;12.60;;;6.50;;
18532;SDS011;9396;51.510;11.934;2024-01-15T05:56:21;11.73;;;6.40;;
18532;SDS011;9396;51.510;11.934;2024-01-15T05:58:49;9.60;;;6.87;;
18532;SDS011;9396;51.510;11.934;2024-01-15T06:01:15;9.70;;;6.43;;
18532;SDS011;9396;51.510;11.934;2024-01-15T06:03:42;11.13;;;6.27;;
18532;SDS011;9396;51.510;11.934;2024-01-15T06:06:10;9.27;;;5.77;;
18532;SDS011;9396;51.510;11.934;2024-01-15T06:08:37;11.67;;;6.53;;
18532;SDS011;9396;51.510;11.934;2024-01-15T06:11:04;13.50;;;6.33;;
18532;SDS011;9396;51.510;11.934;2024-01-15T06:13:30;10.83;;;6.10;;
18532;SDS011;9396;51.510;11.934;2024-01-15T06:15:57;15.93;;;5.73;;
18532;SDS011;9396;51.510;11.934;2024-01-15T06:18:23;10.40;;;6.30;;
18532;SDS011;9396;51.510;11.934;2024-01-15T06:20:50;10.67;;;6.07;;
18532;SDS011;9396;51.510;11.934;2024-01-15T06:23:18;9.43;;;6.10;;
18532;SDS011;9396;51.510;11.934;2024-01-15T06:25:45;10.73;;;7.03;;
18532;SDS011;9396;51.510;11.934;2024-01-15T06:28:10;10.10;;;6.40;;
18532;SDS011;9396;51.510;11.934;2024-01-15T06:30:37;14.93;;;6.40;;
18532;SDS011;9396;51.510;11.934;2024-01-15T06:33:04;11.80;;;7.13;;
18532;SDS011;9396;51.510;11.934;2024-01-15T06:35:31;11.10;;;6.70;;
18532;SDS011;9396;51.510;11.934;2024-01-15T06:37:59;11.93;;;6.80;;
18532;SDS011;9396;51.510;11.934;2024-01-15T06:40:27;14.67;;;7.00;;
18532;SDS011;9396;51.510;11.934;2024-01-15T06:42:53;12.30;;;6.70;;
18532;SDS011;9396;51.510;11.934;2024-01-15T06:45:20;12.30;;;6.07;;
18532;SDS011;9396;51.510;11.934;2024-01-15T06:47:47;9.50;;;6.50;;
18532;SDS011;9396;51.510;11.934;2024-01-15T06:50:13;9.80;;;6.03;;
18532;SDS011;9396;51.510;11.934;2024-01-15T06:52:40;8.67;;;6.10;;
18532;SDS011;9396;51.510;11.934;2024-01-15T06:55:07;9.20;;;6.47;;
18532;SDS011;9396;51.510;11.934;2024-01-15T06:57:35;11.20;;;6.50;;
18532;SDS011;9396;51.510;11.934;2024-01-15T07:00:02;12.97;;;6.80;;
18532;SDS011;9396;51.510;11.934;2024-01-15T07:02:32;13.33;;;6.60;;
18532;SDS011;9396;51.510;11.934;2024-01-15T07:04:59;13.57;;;6.83;;
18532;SDS011;9396;51.510;11.934;2024-01-15T07:07:26;9.40;;;6.37;;
18532;SDS011;9396;51.510;11.934;2024-01-15T07:09:54;10.33;;;6.50;;
18532;SDS011;9396;51.510;11.934;2024-01-15T07:12:21;9.27;;;6.43;;
18532;SDS011;9396;51.510;11.934;2024-01-15T07:14:49;9.77;;;6.57;;
18532;SDS011;9396;51.510;11.934;2024-01-15T07:17:16;14.40;;;8.93;;
18532;SDS011;9396;51.510;11.934;2024-01-15T07:19:42;11.57;;;7.33;;
18532;SDS011;9396;51.510;11.934;2024-01-15T07:22:09;10.20;;;6.93;;
18532;SDS011;9396;51.510;11.934;2024-01-15T07:24:36;13.27;;;6.90;;
18532;SDS011;9396;51.510;11.934;2024-01-15T07:27:03;10.73;;;6.83;;
18532;SDS011;9396;51.510;11.934;2024-01-15T07:29:30;9.90;;;6.77;;
18532;SDS011;9396;51.510;11.934;2024-01-15T07:31:59;13.00;;;6.87;;
18532;SDS011;9396;51.510;11.934;2024-01-15T07:34:26;11.33;;;6.47;;
18532;SDS011;9396;51.510;11.934;2024-01-15T07:36:52;11.93;;;7.03;;
18532;SDS011;9396;51.510;11.934;2024-01-15T07:39:19;11.60;;;7.10;;
18532;SDS011;9396;51.510;11.934;2024-01-15T07:41:45;13.77;;;7.30;;
18532;SDS011;9396;51.510;11.934;2024-01-15T07:44:12;12.53;;;7.60;;
18532;SDS011;9396;51.510;11.934;2024-01-15T07:46:40;11.17;;;7.00;;
18532;SDS011;9396;51.510;11.934;2024-01-15T07:49:11;14.37;;;6.43;;
18532;SDS011;9396;51.510;11.934;2024-01-15T07:51:38;12.10;;;7.13;;
18532;SDS011;9396;51.510;11.934;2024-01-15T07:54:05;12.93;;;7.23;;
18532;SDS011;9396;51.510;11.934;2024-01-15T07:56:32;12.43;;;6.73;;
18532;SDS011;9396;51.510;11.934;2024-01-15T07:58:59;13.90;;;6.47;;
18532;SDS011;9396;51.510;11.934;2024-01-15T08:01:25;10.40;;;6.43;;
18532;SDS011;9396;51.510;11.934;2024-01-15T08:03:52;13.17;;;6.63;;
18532;SDS011;9396;51.510;11.934;2024-01-15T08:06:21;10.90;;;6.93;;
18532;SDS011;9396;51.510;11.934;2024-01-15T08:08:48;10.60;;;6.40;;
18532;SDS011;9396;51.510;11.934;2024-01-15T08:11:15;14.03;;;6.70;;
18532;SDS011;9396;51.510;11.934;2024-01-15T08:13:41;11.27;;;7.40;;
18532;SDS011;9396;51.510;11.934;2024-01-15T08:16:08;13.80;;;6.70;;
18532;SDS011;9396;51.510;11.934;2024-01-15T08:18:34;10.43;;;6.73;;
18532;SDS011;9396;51.510;11.934;2024-01-15T08:21:01;8.97;;;6.33;;
18532;SDS011;9396;51.510;11.934;2024-01-15T08:23:29;12.13;;;6.83;;
18532;SDS011;9396;51.510;11.934;2024-01-15T08:25:56;9.03;;;6.33;;
18532;SDS011;9396;51.510;11.934;2024-01-15T08:28:23;10.93;;;6.43;;
18532;SDS011;9396;51.510;11.934;2024-01-15T08:30:49;12.17;;;7.27;;
18532;SDS011;9396;51.510;11.934;2024-01-15T08:33:16;11.10;;;6.20;;
18532;SDS011;9396;51.510;11.934;2024-01-15T08:35:43;11.80;;;6.70;;
18532;SDS011;9396;51.510;11.934;2024-01-15T08:38:10;11.57;;;7.20;;
18532;SDS011;9396;51.510;11.934;2024-01-15T08:40:38;13.23;;;6.97;;
18532;SDS011;9396;51.510;11.934;2024-01-15T08:43:05;9.67;;;6.23;;
18532;SDS011;9396;51.510;11.934;2024-01-15T08:45:31;14.33;;;5.93;;
18532;SDS011;9396;51.510;11.934;2024-01-15T08:47:58;10.87;;;6.03;;
18532;SDS011;9396;51.510;11.934;2024-01-15T08:50:26;10.40;;;6.17;;
18532;SDS011;9396;51.510;11.934;2024-01-15T08:52:52;9.07;;;6.47;;
18532;SDS011;9396;51.510;11.934;2024-01-15T08:55:19;10.50;;;6.47;;
18532;SDS011;9396;51.510;11.934;2024-01-15T08:57:48;8.37;;;5.57;;
18532;SDS011;9396;51.510;11.934;2024-01-15T09:00:15;10.03;;;6.30;;
18532;SDS011;9396;51.510;11.934;2024-01-15T09:02:43;9.27;;;6.23;;
18532;SDS011;9396;51.510;11.934;2024-01-15T09:05:10;9.63;;;6.20;;
18532;SDS011;9396;51.510;11.934;2024-01-15T09:07:37;10.20;;;6.47;;
18532;SDS011;9396;51.510;11.934;2024-01-15T09:10:03;10.47;;;6.53;;
18532;SDS011;9396;51.510;11.934;2024-01-15T09:12:31;9.27;;;6.33;;
18532;SDS011;9396;51.510;11.934;2024-01-15T09:14:59;10.90;;;5.80;;
18532;SDS011;9396;51.510;11.934;2024-01-15T09:17:29;11.47;;;6.50;;
18532;SDS011;9396;51.510;11.934;2024-01-15T09:19:56;9.90;;;5.93;;
18532;SDS011;9396;51.510;11.934;2024-01-15T09:22:22;9.87;;;6.10;;
18532;SDS011;9396;51.510;11.934;2024-01-15T09:24:49;10.00;;;5.83;;
18532;SDS011;9396;51.510;11.934;2024-01-15T09:27:15;10.00;;;6.27;;
18532;SDS011;9396;51.510;11.934;2024-01-15T09:29:42;11.13;;;6.23;;
18532;SDS011;9396;51.510;11.934;2024-01-15T09:32:12;8.03;;;5.23;;
18532;SDS011;9396;51.510;11.934;2024-01-15T09:34:38;11.23;;;6.40;;
18532;SDS011;9396;51.510;11.934;2024-01-15T09:37:06;9.80;;;5.63;;
18532;SDS011;9396;51.510;11.934;2024-01-15T09:39:33;8.90;;;5.40;;
18532;SDS011;9396;51.510;11.934;2024-01-15T09:41:59;11.37;;;5.87;;
18532;SDS011;9396;51.510;11.934;2024-01-15T09:44:27;11.93;;;5.97;;
18532;SDS011;9396;51.510;11.934;2024-01-15T09:46:55;11.13;;;6.03;;
18532;SDS011;9396;51.510;11.934;2024-01-15T09:49:23;6.97;;;4.90;;
18532;SDS011;9396;51.510;11.934;2024-01-15T09:51:50;8.60;;;5.63;;
18532;SDS011;9396;51.510;11.934;2024-01-15T09:54:17;8.30;;;5.67;;
18532;SDS011;9396;51.510;11.934;2024-01-15T09:56:44;13.43;;;5.83;;
18532;SDS011;9396;51.510;11.934;2024-01-15T09:59:12;12.30;;;6.07;;
18532;SDS011;9396;51.510;11.934;2024-01-15T10:01:41;8.83;;;5.23;;
18532;SDS011;9396;51.510;11.934;2024-01-15T10:04:10;10.87;;;5.27;;
18532;SDS011;9396;51.510;11.934;2024-01-15T10:06:39;9.37;;;5.90;;
18532;SDS011;9396;51.510;11.934;2024-01-15T10:09:07;8.37;;;5.10;;
18532;SDS011;9396;51.510;11.934;2024-01-15T10:11:34;8.90;;;5.53;;
18532;SDS011;9396;51.510;11.934;2024-01-15T10:14:02;10.17;;;5.27;;
18532;SDS011;9396;51.510;11.934;2024-01-15T10:16:30;9.80;;;5.40;;
18532;SDS011;9396;51.510;11.934;2024-01-15T10:18:57;9.57;;;5.60;;
18532;SDS011;9396;51.510;11.934;2024-01-15T10:21:24;9.23;;;5.73;;
18532;SDS011;9396;51.510;11.934;2024-01-15T10:23:53;9.30;;;5.50;;
18532;SDS011;9396;51.510;11.934;2024-01-15T10:26:24;7.33;;;4.77;;
18532;SDS011;9396;51.510;11.934;2024-01-15T10:28:50;8.93;;;5.20;;
18532;SDS011;9396;51.510;11.934;2024-01-15T10:31:18;9.87;;;5.70;;
18532;SDS011;9396;51.510;11.934;2024-01-15T10:33:46;9.63;;;4.93;;
18532;SDS011;9396;51.510;11.934;2024-01-15T10:36:13;11.97;;;5.70;;
18532;SDS011;9396;51.510;11.934;2024-01-15T10:38:42;10.73;;;5.33;;
18532;SDS011;9396;51.510;11.934;2024-01-15T10:41:10;9.67;;;5.13;;
18532;SDS011;9396;51.510;11.934;2024-01-15T10:43:37;11.57;;;5.00;;
18532;SDS011;9396;51.510;11.934;2024-01-15T10:46:06;8.80;;;5.20;;
18532;SDS011;9396;51.510;11.934;2024-01-15T10:48:33;9.93;;;5.33;;
18532;SDS011;9396;51.510;11.934;2024-01-15T10:51:00;9.23;;;5.20;;
18532;SDS011;9396;51.510;11.934;2024-01-15T10:53:33;8.83;;;5.60;;
18532;SDS011;9396;51.510;11.934;2024-01-15T10:56:02;8.10;;;5.20;;
18532;SDS011;9396;51.510;11.934;2024-01-15T10:58:32;9.77;;;5.57;;
18532;SDS011;9396;51.510;11.934;2024-01-15T11:01:00;10.60;;;5.47;;
18532;SDS011;9396;51.510;11.934;2024-01-15T11:03:27;12.50;;;5.90;;
18532;SDS011;9396;51.510;11.934;2024-01-15T11:05:53;10.90;;;6.33;;
18532;SDS011;9396;51.510;11.934;2024-01-15T11:08:20;9.30;;;5.70;;
18532;SDS011;9396;51.510;11.934;2024-01-15T11:10:47;9.10;;;5.83;;
18532;SDS011;9396;51.510;11.934;2024-01-15T11:13:19;10.03;;;5.70;;
18532;SDS011;9396;51.510;11.934;2024-01-15T11:16:01;12.03;;;5.60;;
18532;SDS011;9396;51.510;11.934;2024-01-15T11:18:29;10.37;;;5.53;;
18532;SDS011;9396;51.510;11.934;2024-01-15T11:23:50;11.17;;;6.27;;
18532;SDS011;9396;51.510;11.934;2024-01-15T11:26:32;10.07;;;5.27;;
18532;SDS011;9396;51.510;11.934;2024-01-15T11:29:01;8.77;;;5.70;;
18532;SDS011;9396;51.510;11.934;2024-01-15T11:37:27;10.43;;;6.13;;
18532;SDS011;9396;51.510;11.934;2024-01-15T11:39:54;9.40;;;5.27;;
18532;SDS011;9396;51.510;11.934;2024-01-15T11:42:22;8.37;;;5.33;;
18532;SDS011;9396;51.510;11.934;2024-01-15T11:44:49;9.17;;;5.33;;
18532;SDS011;9396;51.510;11.934;2024-01-15T11:47:21;12.03;;;6.23;;
18532;SDS011;9396;51.510;11.934;2024-01-15T11:50:06;10.83;;;6.40;;
18532;SDS011;9396;51.510;11.934;2024-01-15T11:52:34;10.87;;;6.27;;
18532;SDS011;9396;51.510;11.934;2024-01-15T11:55:06;11.50;;;7.13;;
18532;SDS011;9396;51.510;11.934;2024-01-15T11:57:40;9.43;;;5.60;;
18532;SDS011;9396;51.510;11.934;2024-01-15T12:00:08;10.83;;;6.23;;
18532;SDS011;9396;51.510;11.934;2024-01-15T12:02:38;10.77;;;6.30;;
18532;SDS011;9396;51.510;11.934;2024-01-15T12:05:06;8.13;;;5.33;;
18532;SDS011;9396;51.510;11.934;2024-01-15T12:07:33;9.87;;;6.10;;
18532;SDS011;9396;51.510;11.934;2024-01-15T12:10:00;8.87;;;5.87;;
18532;SDS011;9396;51.510;11.934;2024-01-15T12:12:29;9.13;;;5.93;;
18532;SDS011;9396;51.510;11.934;2024-01-15T12:15:05;11.50;;;6.43;;
18532;SDS011;9396;51.510;11.934;2024-01-15T12:17:34;13.87;;;6.60;;
18532;SDS011;9396;51.510;11.934;2024-01-15T12:20:03;11.67;;;6.23;;
18532;SDS011;9396;51.510;11.934;2024-01-15T12:22:29;11.67;;;5.83;;
18532;SDS011;9396;51.510;11.934;2024-01-15T12:24:56;9.30;;;6.13;;
18532;SDS011;9396;51.510;11.934;2024-01-15T12:27:23;9.60;;;5.83;;
18532;SDS011;9396;51.510;11.934;2024-01-15T12:29:52;8.97;;;5.70;;
18532;SDS011;9396;51.510;11.934;2024-01-15T12:32:19;11.27;;;6.23;;
18532;SDS011;9396;51.510;11.934;2024-01-15T12:34:46;8.50;;;5.57;;
18532;SDS011;9396;51.510;11.934;2024-01-15T12:37:14;11.30;;;5.87;;
18532;SDS011;9396;51.510;11.934;2024-01-15T12:39:42;7.43;;;4.90;;
18532;SDS011;9396;51.510;11.934;2024-01-15T12:42:09;7.37;;;4.90;;
18532;SDS011;9396;51.510;11.934;2024-01-15T12:44:36;7.30;;;4.80;;
18532;SDS011;9396;51.510;11.934;2024-01-15T12:47:03;6.47;;;4.27;;
18532;SDS011;9396;51.510;11.934;2024-01-15T12:49:30;8.60;;;4.40;;
18532;SDS011;9396;51.510;11.934;2024-01-15T12:51:57;8.70;;;4.63;;
18532;SDS011;9396;51.510;11.934;2024-01-15T12:54:25;6.73;;;4.27;;
18532;SDS011;9396;51.510;11.934;2024-01-15T12:56:52;6.30;;;4.10;;
18532;SDS011;9396;51.510;11.934;2024-01-15T12:59:19;5.93;;;3.80;;
18532;SDS011;9396;51.510;11.934;2024-01-15T13:01:46;5.93;;;3.80;;
18532;SDS011;9396;51.510;11.934;2024-01-15T13:04:20;6.97;;;3.57;;
18532;SDS011;9396;51.510;11.934;2024-01-15T13:06:48;4.97;;;3.13;;
18532;SDS011;9396;51.510;11.934;2024-01-15T13:09:15;3.80;;;2.73;;
18532;SDS011;9396;51.510;11.934;2024-01-15T13:11:44;4.73;;;2.70;;
18532;SDS011;9396;51.510;11.934;2024-01-15T13:14:11;3.83;;;2.97;;
18532;SDS011;9396;51.510;11.934;2024-01-15T13:16:38;4.07;;;2.70;;
18532;SDS011;9396;51.510;11.934;2024-01-15T13:19:06;6.80;;;2.90;;
18532;SDS011;9396;51.510;11.934;2024-01-15T13:21:33;5.23;;;3.00;;
18532;SDS011;9396;51.510;11.934;2024-01-15T13:24:00;5.10;;;3.60;;
18532;SDS011;9396;51.510;11.934;2024-01-15T13:26:28;6.53;;;3.37;;
18532;SDS011;9396;51.510;11.934;2024-01-15T13:28:56;5.27;;;3.73;;
18532;SDS011;9396;51.510;11.934;2024-01-15T13:31:23;6.37;;;3.77;;
18532;SDS011;9396;51.510;11.934;2024-01-15T13:33:50;7.07;;;3.70;;
18532;SDS011;9396;51.510;11.934;2024-01-15T13:36:16;7.13;;;4.37;;
18532;SDS011;9396;51.510;11.934;2024-01-15T13:38:43;5.77;;;3.90;;
18532;SDS011;9396;51.510;11.934;2024-01-15T13:41:10;7.20;;;4.30;;
18532;SDS011;9396;51.510;11.934;2024-01-15T13:43:36;8.30;;;4.27;;
18532;SDS011;9396;51.510;11.934;2024-01-15T13:46:05;5.60;;;3.60;;
18532;SDS011;9396;51.510;11.934;2024-01-15T13:48:31;6.10;;;3.50;;
18532;SDS011;9396;51.510;11.934;2024-01-15T13:50:58;5.43;;;3.03;;
18532;SDS011;9396;51.510;11.934;2024-01-15T13:53:25;6.33;;;3.37;;
18532;SDS011;9396;51.510;11.934;2024-01-15T13:55:52;5.13;;;3.20;;
18532;SDS011;9396;51.510;11.934;2024-01-15T13:58:18;5.10;;;3.00;;
18532;SDS011;9396;51.510;11.934;2024-01-15T14:00:49;4.13;;;3.20;;
18532;SDS011;9396;51.510;11.934;2024-01-15T14:03:17;3.93;;;3.10;;
18532;SDS011;9396;51.510;11.934;2024-01-15T14:05:44;4.70;;;2.80;;
18532;SDS011;9396;51.510;11.934;2024-01-15T14:08:10;6.73;;;3.80;;
18532;SDS011;9396;51.510;11.934;2024-01-15T14:10:37;4.30;;;3.17;;
18532;SDS011;9396;51.510;11.934;2024-01-15T14:13:04;4.83;;;2.90;;
18532;SDS011;9396;51.510;11.934;2024-01-15T14:15:30;5.00;;;3.03;;
18532;SDS011;9396;51.510;11.934;2024-01-15T14:17:57;5.63;;;3.00;;
18532;SDS011;9396;51.510;11.934;2024-01-15T14:20:26;5.30;;;2.83;;
18532;SDS011;9396;51.510;11.934;2024-01-15T14:22:52;4.13;;;2.57;;
18532;SDS011;9396;51.510;11.934;2024-01-15T14:25:19;4.70;;;2.67;;
18532;SDS011;9396;51.510;11.934;2024-01-15T14:27:47;7.27;;;3.10;;
18532;SDS011;9396;51.510;11.934;2024-01-15T14:30:13;4.00;;;2.87;;
18532;SDS011;9396;51.510;11.934;2024-01-15T14:32:41;5.67;;;2.90;;
18532;SDS011;9396;51.510;11.934;2024-01-15T14:35:08;4.43;;;2.50;;
18532;SDS011;9396;51.510;11.934;2024-01-15T14:37:37;4.60;;;2.60;;
18532;SDS011;9396;51.510;11.934;2024-01-15T14:40:04;3.93;;;2.33;;
18532;SDS011;9396;51.510;11.934;2024-01-15T14:42:32;4.43;;;2.50;;
18532;SDS011;9396;51.510;11.934;2024-01-15T14:44:59;4.20;;;2.27;;